Wannaska, Minnesota
Current Conditions -  °F | °C
As of 7:54 PM on Saturday 20 Dec 2014 (Local Time) from KROX Reporting Station
Haze Haze  
Wind Chill: 21°   Ceiling: 500
Heat Index: 30°   Visibility: 5mi
Dew Point: 27°   Wind: 12mph
Humidity: 86%   Direction: 170°S
Pressure: 29.92"   Gusts: NA
Location:  48.66°N, 95.74°W
Report Text: KROX 210154Z AUTO 17010KT 5SM BR OVC005 M01/M03 A2992 RMK AO2
Loading
Personal Weather Stations






























Interactive Weather Map New forecast layout! Learn more

10-Day Weather Forecast

Advertisements
Track Severe Weather on mobile